Time;durP1;ratioP1;P1;durP2;ratioP2;P2;SDS_P1;SDS_P2;PMS_P1;PMS_P2;Temp;Humidity;BMP_temperature;BMP_pressure;BME280_temperature;BME280_humidity;BME280_pressure;Samples;Min_cycle;Max_cycle;Signal;HPM_P1;HPM_P2
2022/07/28 00:01:12;;;;;;;3.72;1.85;;;20.20;43.60;;;21.00;38.14;97619.59;5086660;28;20056;-39
2022/07/28 00:03:45;;;;;;;4.40;1.98;;;20.20;43.70;;;20.98;37.96;97607.34;5085048;28;20043;-40
2022/07/28 00:06:13;;;;;;;4.03;1.88;;;20.20;43.60;;;20.93;38.15;97616.13;5068779;28;20334;-39
2022/07/28 00:08:41;;;;;;;2.40;1.67;;;20.10;43.80;;;20.93;38.15;97608.00;5086825;28;20049;-39
2022/07/28 00:11:09;;;;;;;2.55;2.35;;;20.10;44.10;;;20.93;38.25;97608.00;5086177;28;20051;-39
2022/07/28 00:13:37;;;;;;;3.67;1.85;;;20.10;44.00;;;20.94;38.08;97601.56;5086261;28;20070;-39
2022/07/28 00:16:06;;;;;;;3.45;2.28;;;20.10;44.00;;;20.93;38.02;97605.31;5086113;28;20044;-39
2022/07/28 00:18:34;;;;;;;5.93;1.98;;;20.10;43.80;;;20.92;38.32;97602.81;5068181;28;20070;-39
2022/07/28 00:21:02;;;;;;;3.42;1.70;;;20.10;44.00;;;20.88;38.21;97601.63;5086055;28;20063;-39
2022/07/28 00:23:29;;;;;;;5.15;2.88;;;20.10;44.20;;;20.86;38.07;97601.88;5068545;28;20058;-39
2022/07/28 00:26:08;;;;;;;3.05;1.67;;;20.00;44.50;;;20.84;38.25;97595.88;5088957;28;20056;-39
2022/07/28 00:28:36;;;;;;;3.90;1.83;;;20.00;44.20;;;20.84;38.11;97593.97;5090602;28;20422;-39
2022/07/28 00:31:05;;;;;;;2.95;2.10;;;20.00;44.10;;;20.83;38.15;97591.50;5090652;28;20048;-39
2022/07/28 00:33:36;;;;;;;2.92;1.88;;;20.00;44.10;;;20.82;38.30;97590.69;5089918;28;20054;-39
2022/07/28 00:36:05;;;;;;;4.85;1.67;;;20.00;44.20;;;20.78;38.36;97586.78;5092110;28;20343;-39
2022/07/28 00:38:36;;;;;;;4.65;1.73;;;20.00;44.20;;;20.76;38.30;97577.22;5089647;28;20245;-39
2022/07/28 00:41:10;;;;;;;2.70;2.10;;;19.90;44.10;;;20.69;38.43;97579.22;5091067;28;20345;-39
2022/07/28 00:43:47;;;;;;;4.25;2.15;;;19.80;44.40;;;20.67;38.47;97584.84;5089459;28;20058;-39
2022/07/28 00:46:21;;;;;;;3.10;1.70;;;19.80;44.60;;;20.65;38.32;97587.78;5091249;28;20052;-39
2022/07/28 00:48:52;;;;;;;3.58;1.95;;;19.80;44.50;;;20.63;38.39;97589.06;5090712;28;20561;-39
2022/07/28 00:51:24;;;;;;;3.33;2.10;;;19.80;44.70;;;20.62;38.71;97582.00;5089157;28;20048;-39
2022/07/28 00:53:53;;;;;;;4.28;1.80;;;19.80;44.70;;;20.63;38.71;97583.66;5090106;28;20044;-39
2022/07/28 00:56:22;;;;;;;4.30;2.20;;;19.80;44.80;;;20.65;38.72;97585.06;5089592;28;20062;-40
2022/07/28 00:58:50;;;;;;;4.07;2.42;;;19.80;44.70;;;20.66;38.41;97577.78;5087862;28;20048;-40
2022/07/28 01:01:20;;;;;;;2.47;1.50;;;19.80;44.60;;;20.64;38.43;97583.41;5089706;28;20056;-39
2022/07/28 01:04:00;;;;;;;4.55;1.73;;;19.80;44.60;;;20.63;38.72;97568.25;5105996;28;20040;-39
2022/07/28 01:06:31;;;;;;;2.53;2.28;;;19.80;44.80;;;20.61;38.71;97566.81;5089300;28;20048;-39
2022/07/28 01:09:20;;;;;;;6.78;2.65;;;19.80;44.70;;;20.58;38.65;97575.34;5088897;28;20063;-39
2022/07/28 01:12:08;;;;;;;3.00;1.67;;;19.70;44.60;;;20.55;38.43;97565.81;5089776;28;20051;-39
2022/07/28 01:14:54;;;;;;;2.65;2.08;;;19.70;45.00;;;20.50;38.56;97562.16;5090616;28;20048;-39
2022/07/28 01:17:49;;;;;;;3.20;1.70;;;19.70;45.00;;;20.48;38.72;97562.38;5089154;28;20048;-39
2022/07/28 01:21:14;;;;;;;3.97;1.20;;;19.60;44.90;;;20.44;38.58;97564.69;5088228;28;20043;-39
2022/07/28 01:24:04;;;;;;;2.10;1.70;;;19.70;44.70;;;20.44;38.70;97561.16;4997896;28;20050;-39
2022/07/28 01:27:09;;;;;;;2.35;1.60;;;19.60;44.60;;;20.37;38.43;97557.72;4988489;28;20068;-39
2022/07/28 01:29:57;;;;;;;3.78;1.77;;;19.60;44.90;;;20.34;38.61;97552.78;5076578;28;20269;-39
2022/07/28 01:32:32;;;;;;;2.70;1.45;;;19.50;44.90;;;20.29;38.84;97566.13;5071787;28;20060;-39
2022/07/28 01:35:23;;;;;;;3.55;1.70;;;19.40;45.00;;;20.21;38.80;97559.97;5089923;28;20052;-39
2022/07/28 01:37:58;;;;;;;4.05;1.85;;;19.30;45.40;;;20.18;39.01;97556.88;5072201;28;20055;-39
2022/07/28 01:40:32;;;;;;;4.05;1.85;;;19.30;45.40;;;20.15;39.11;97554.66;5086747;28;20050;-39
2022/07/28 01:43:06;;;;;;;6.20;1.80;;;19.30;45.40;;;20.13;39.00;97557.56;5104626;28;20052;-39
2022/07/28 01:45:36;;;;;;;3.88;1.60;;;19.30;45.30;;;20.11;39.11;97543.47;5089321;28;20048;-39
2022/07/28 01:48:05;;;;;;;8.00;2.17;;;19.20;45.10;;;20.08;39.14;97549.28;5094693;28;20037;-39
2022/07/28 01:50:36;;;;;;;2.03;1.83;;;19.20;45.20;;;20.02;39.17;97542.91;5050715;28;20066;-39
2022/07/28 01:53:07;;;;;;;3.33;1.50;;;19.20;45.20;;;20.00;39.12;97538.78;5068507;28;20048;-39
2022/07/28 01:55:37;;;;;;;4.10;1.60;;;19.20;45.20;;;19.97;39.28;97536.56;5052177;28;20452;-39
2022/07/28 01:58:06;;;;;;;5.95;1.77;;;19.20;45.20;;;19.94;39.40;97532.41;5068004;28;20060;-39
2022/07/28 02:00:35;;;;;;;2.40;1.40;;;19.20;45.30;;;19.92;39.34;97534.50;5050721;28;20052;-39
2022/07/28 02:03:05;;;;;;;5.00;1.80;;;19.20;45.30;;;19.90;39.39;97538.50;5034147;28;20235;-39
2022/07/28 02:05:36;;;;;;;3.47;2.38;;;19.20;45.40;;;19.88;39.33;97540.59;5051066;28;20044;-39
2022/07/28 02:08:06;;;;;;;3.03;1.77;;;19.10;45.60;;;19.86;39.58;97544.31;5050983;28;20054;-40
2022/07/28 02:10:35;;;;;;;3.63;1.60;;;19.10;45.60;;;19.83;39.54;97534.00;5050315;28;20052;-39
2022/07/28 02:13:04;;;;;;;3.33;2.20;;;19.00;45.70;;;19.82;39.38;97532.31;5050697;28;20058;-39
2022/07/28 02:15:33;;;;;;;1.77;1.67;;;19.00;45.70;;;19.81;39.58;97530.69;5051208;28;20059;-39
2022/07/28 02:18:03;;;;;;;2.45;1.48;;;19.00;45.90;;;19.80;39.68;97526.31;5050565;28;20592;-39
2022/07/28 02:20:31;;;;;;;4.55;1.80;;;19.00;45.80;;;19.79;39.68;97516.56;5050825;28;20040;-39
2022/07/28 02:22:59;;;;;;;2.33;1.60;;;19.00;46.00;;;19.77;39.71;97521.34;5051152;28;20058;-39
2022/07/28 02:25:29;;;;;;;2.55;1.60;;;19.00;46.00;;;19.76;39.80;97521.59;5050146;28;20048;-39
2022/07/28 02:28:05;;;;;;;2.17;1.40;;;19.00;46.10;;;19.72;39.60;97517.69;5067406;28;20431;-39
2022/07/28 02:30:49;;;;;;;2.50;1.92;;;18.90;46.50;;;19.72;39.67;97520.41;5049890;28;20053;-39
2022/07/28 02:33:22;;;;;;;1.85;1.40;;;18.80;46.30;;;19.67;39.91;97521.81;5051938;28;20242;-39
2022/07/28 02:36:24;;;;;;;4.03;1.77;;;18.80;46.70;;;19.66;39.78;97519.38;5067902;28;20050;-39
2022/07/28 02:38:55;;;;;;;2.25;2.05;;;18.80;46.70;;;19.64;39.95;97522.28;5050548;28;20056;-39
2022/07/28 02:41:28;;;;;;;4.50;1.50;;;18.70;46.80;;;19.61;40.04;97517.31;5049704;28;20063;-39
2022/07/28 02:44:03;;;;;;;3.47;1.70;;;18.70;46.80;;;19.60;39.94;97517.53;5067579;28;20054;-39
2022/07/28 02:46:44;;;;;;;3.92;1.63;;;18.70;46.90;;;19.55;40.09;97518.22;5050177;28;20063;-40
2022/07/28 02:49:20;;;;;;;2.20;1.70;;;18.70;47.10;;;19.52;40.13;97513.25;5049260;28;20238;-39
2022/07/28 02:51:50;;;;;;;2.65;1.75;;;18.70;46.90;;;19.50;40.21;97512.63;5066267;28;20052;-39
2022/07/28 02:54:20;;;;;;;3.92;1.75;;;18.70;46.80;;;19.48;40.24;97509.34;5049561;28;20060;-39
2022/07/28 02:56:50;;;;;;;2.83;1.83;;;18.70;46.90;;;19.46;40.36;97503.34;5049896;28;20233;-39
2022/07/28 02:59:22;;;;;;;2.83;2.10;;;18.60;46.90;;;19.46;40.33;97508.72;5050136;28;20060;-39
2022/07/28 03:01:50;;;;;;;4.07;1.67;;;18.70;47.00;;;19.45;40.35;97509.78;5067198;28;20262;-39
2022/07/28 03:04:55;;;;;;;3.17;1.58;;;18.70;47.00;;;19.40;40.46;97502.34;5050437;28;20388;-39
2022/07/28 03:07:08;;;;;;;2.17;1.75;;;18.70;47.00;;;19.40;40.45;97502.34;5052872;28;20373;-39
2022/07/28 03:09:40;;;;;;;4.43;1.88;;;18.70;47.00;;;19.39;40.61;97508.81;5065691;28;20062;-39
2022/07/28 03:12:14;;;;;;;3.00;1.40;;;18.70;47.00;;;19.41;40.53;97500.50;5067779;28;20052;-39
2022/07/28 03:14:42;;;;;;;3.83;1.67;;;18.70;47.10;;;19.36;40.34;97498.44;5067678;28;20045;-39
2022/07/28 03:17:10;;;;;;;4.68;2.08;;;18.60;46.90;;;19.37;40.61;97493.88;5048911;28;20060;-39
2022/07/28 03:19:38;;;;;;;5.65;1.75;;;18.70;47.00;;;19.35;40.66;97504.91;5067470;28;20056;-39
2022/07/28 03:22:06;;;;;;;3.38;1.98;;;18.60;47.00;;;19.31;40.62;97502.84;5068216;28;20056;-39
2022/07/28 03:24:43;;;;;;;3.00;1.95;;;18.60;47.00;;;19.30;40.76;97510.13;5066915;28;20052;-40
2022/07/28 03:27:29;;;;;;;2.20;1.88;;;18.60;47.30;;;19.28;40.69;97504.94;5066644;28;20048;-39
2022/07/28 03:30:11;;;;;;;2.28;1.77;;;18.50;47.70;;;19.28;40.84;97513.03;5066781;28;20046;-39
2022/07/28 03:32:53;;;;;;;1.77;1.40;;;18.50;47.50;;;19.25;40.77;97509.94;5065811;28;20061;-39
2022/07/28 03:35:22;;;;;;;3.65;1.98;;;18.50;47.70;;;19.21;40.77;97512.28;5051609;28;20067;-39
2022/07/28 03:38:06;;;;;;;4.63;1.70;;;18.40;47.60;;;19.17;40.89;97511.03;5048037;28;20239;-39
2022/07/28 03:40:36;;;;;;;3.38;1.60;;;18.40;48.30;;;19.15;41.04;97518.53;5048305;28;20060;-39
2022/07/28 03:43:07;;;;;;;3.25;1.80;;;18.30;48.00;;;19.11;41.06;97516.50;5048830;28;20064;-39
2022/07/28 03:45:36;;;;;;;3.65;2.00;;;18.30;48.00;;;19.07;41.17;97516.09;5067140;28;20341;-39
2022/07/28 03:48:08;;;;;;;2.60;2.15;;;18.30;48.00;;;19.06;41.27;97525.25;5049787;28;20350;-39
2022/07/28 03:50:36;;;;;;;3.58;2.47;;;18.30;48.10;;;19.04;41.36;97520.09;5067101;28;20048;-39
2022/07/28 03:53:13;;;;;;;2.88;1.80;;;18.20;48.10;;;19.03;41.43;97518.41;5065509;28;20258;-39
2022/07/28 03:55:40;;;;;;;3.97;1.83;;;18.30;48.70;;;19.03;41.52;97523.00;5049686;28;20052;-40
2022/07/28 03:58:08;;;;;;;4.05;2.42;;;18.30;48.50;;;19.02;41.48;97527.56;5064323;28;20058;-39
2022/07/28 04:00:36;;;;;;;6.18;1.63;;;18.20;48.40;;;19.01;41.60;97525.91;5047291;28;20056;-39
2022/07/28 04:03:04;;;;;;;3.10;2.10;;;18.20;48.60;;;18.97;41.48;97522.00;5065158;28;20074;-39
2022/07/28 04:05:55;;;;;;;2.90;2.22;;;18.20;48.70;;;18.93;41.74;97522.66;5065850;28;20060;-39
2022/07/28 04:08:23;;;;;;;3.25;1.85;;;18.10;48.90;;;18.92;41.76;97518.28;5064659;28;20239;-39
2022/07/28 04:10:52;;;;;;;3.10;1.77;;;18.20;48.70;;;18.91;41.87;97525.56;5065125;28;20041;-39
2022/07/28 04:13:20;;;;;;;4.97;1.70;;;18.20;48.70;;;18.93;41.92;97531.56;5065131;28;20059;-39
2022/07/28 04:15:48;;;;;;;3.75;2.08;;;18.20;48.90;;;18.94;42.05;97527.84;5066861;28;20049;-39
2022/07/28 04:18:17;;;;;;;5.47;2.03;;;18.20;48.90;;;18.96;41.94;97531.13;5066439;28;20061;-39
2022/07/28 04:20:45;;;;;;;4.53;1.70;;;18.20;48.90;;;18.98;41.93;97522.81;5065853;28;20059;-39
2022/07/28 04:23:13;;;;;;;2.35;1.88;;;18.20;49.00;;;18.98;42.06;97522.81;5048984;28;20052;-39
2022/07/28 04:25:41;;;;;;;2.28;1.67;;;18.20;49.10;;;19.00;42.03;97528.81;5066386;28;20044;-39
2022/07/28 04:28:09;;;;;;;3.45;1.70;;;18.20;49.10;;;19.01;42.11;97533.16;5067300;28;20046;-39
2022/07/28 04:30:37;;;;;;;9.25;5.65;;;18.20;49.30;;;19.02;42.26;97521.34;5048505;28;20059;-39
2022/07/28 04:33:11;;;;;;;4.55;2.80;;;18.20;49.40;;;19.06;42.16;97527.97;5066564;28;20040;-39
2022/07/28 04:35:39;;;;;;;2.20;1.80;;;18.30;49.30;;;19.08;42.23;97528.56;5067164;28;20036;-39
2022/07/28 04:38:07;;;;;;;3.13;1.80;;;18.30;49.30;;;19.10;42.38;97533.75;5064917;28;20041;-39
2022/07/28 04:40:35;;;;;;;3.60;1.88;;;18.30;49.50;;;19.11;42.32;97530.00;5065070;28;20048;-39
2022/07/28 04:43:03;;;;;;;2.85;1.58;;;18.30;49.60;;;19.12;42.37;97528.97;5064838;28;20048;-39
2022/07/28 04:45:30;;;;;;;3.15;2.05;;;18.30;49.50;;;19.12;42.51;97529.78;5066419;28;20057;-39
2022/07/28 04:47:59;;;;;;;2.65;2.00;;;18.40;49.60;;;19.15;42.33;97528.50;5066173;28;20052;-39
2022/07/28 04:50:26;;;;;;;2.97;1.75;;;18.40;49.70;;;19.17;42.34;97526.41;5065137;28;20071;-39
2022/07/28 04:52:58;;;;;;;1.90;1.70;;;18.40;49.60;;;19.18;42.17;97523.50;5064366;28;20067;-39
2022/07/28 04:55:26;;;;;;;2.60;1.92;;;18.40;49.60;;;19.18;42.33;97528.09;5049037;28;20055;-39
2022/07/28 04:57:54;;;;;;;4.50;2.05;;;18.40;49.40;;;19.14;42.64;97522.28;5047695;28;20066;-39
2022/07/28 05:00:22;;;;;;;3.22;2.08;;;18.50;49.40;;;19.15;42.66;97523.94;5065044;28;20198;-39
2022/07/28 05:02:50;;;;;;;3.60;1.67;;;18.50;49.50;;;19.16;42.71;97522.91;5065314;28;20052;-39
2022/07/28 05:05:18;;;;;;;3.10;1.65;;;18.60;49.30;;;19.16;42.90;97522.06;5066466;28;20056;-39
2022/07/28 05:07:46;;;;;;;2.63;1.50;;;18.60;49.60;;;19.23;42.74;97520.97;5065126;28;20055;-39
2022/07/28 05:10:14;;;;;;;3.25;1.67;;;18.60;49.60;;;19.30;42.77;97531.72;5065536;28;20048;-39
2022/07/28 05:12:41;;;;;;;2.78;1.80;;;18.60;49.60;;;19.33;42.56;97531.28;5068142;28;20044;-39
2022/07/28 05:15:10;;;;;;;3.13;1.65;;;18.60;49.60;;;19.37;42.64;97527.09;5069783;28;20388;-39
2022/07/28 05:17:37;;;;;;;3.00;2.20;;;18.60;49.60;;;19.39;42.75;97530.41;5068181;28;20052;-39
2022/07/28 05:20:07;;;;;;;3.08;2.17;;;18.70;49.90;;;19.39;42.71;97530.41;5068345;28;20063;-39
2022/07/28 05:22:47;;;;;;;2.78;1.70;;;18.70;49.70;;;19.40;42.65;97526.63;5068549;28;20055;-39
2022/07/28 05:25:22;;;;;;;3.35;2.45;;;18.70;50.20;;;19.41;42.86;97527.50;5069406;28;20049;-39
2022/07/28 05:27:51;;;;;;;5.32;1.90;;;18.70;50.20;;;19.38;42.73;97523.34;5052927;28;20051;-39
2022/07/28 05:30:20;;;;;;;5.40;2.42;;;18.70;49.90;;;19.34;43.04;97521.31;5068613;28;20076;-39
2022/07/28 05:32:48;;;;;;;3.53;1.95;;;18.70;50.00;;;19.34;43.02;97526.72;5068737;28;20048;-39
2022/07/28 05:35:16;;;;;;;2.25;1.60;;;18.60;50.20;;;19.33;43.18;97525.88;5069491;28;20211;-39
2022/07/28 05:37:44;;;;;;;3.15;2.13;;;18.60;50.30;;;19.30;43.04;97518.22;5069130;28;20628;-39
2022/07/28 05:40:14;;;;;;;8.88;1.88;;;18.60;50.20;;;19.25;43.29;97521.59;5068336;28;20062;-39
2022/07/28 05:42:42;;;;;;;2.65;1.80;;;18.60;50.40;;;19.23;43.11;97529.09;5068380;28;20049;-39
2022/07/28 05:45:12;;;;;;;5.50;2.10;;;18.60;50.30;;;19.23;43.39;97531.78;5069791;28;20055;-39
2022/07/28 05:47:51;;;;;;;3.08;2.78;;;18.60;50.50;;;19.24;43.47;97532.59;5050762;28;20048;-39
2022/07/28 05:50:21;;;;;;;3.78;2.10;;;18.50;51.10;;;19.23;43.59;97526.38;5068889;28;20049;-39
2022/07/28 05:52:50;;;;;;;4.00;2.05;;;18.60;50.80;;;19.22;43.55;97530.13;5068824;28;20044;-39
2022/07/28 05:55:18;;;;;;;2.75;2.40;;;18.60;50.70;;;19.22;43.62;97529.28;5068102;28;20056;-39
2022/07/28 05:57:46;;;;;;;4.03;2.20;;;18.60;50.70;;;19.25;43.74;97529.69;5050215;28;20060;-39
2022/07/28 06:00:18;;;;;;;4.85;2.38;;;18.70;51.00;;;19.31;43.95;97527.97;5068417;28;20123;-38
2022/07/28 06:02:50;;;;;;;5.65;2.97;;;18.70;51.00;;;19.37;43.79;97527.09;5068153;28;20057;-38
2022/07/28 06:05:21;;;;;;;3.63;2.00;;;18.80;51.00;;;19.40;43.75;97525.81;5069252;28;20044;-39
2022/07/28 06:07:50;;;;;;;3.83;2.30;;;18.80;51.00;;;19.45;43.72;97528.69;5067127;28;20066;-40
2022/07/28 06:10:23;;;;;;;5.25;2.10;;;18.80;50.80;;;19.47;44.11;97526.59;5067116;28;20050;-39
2022/07/28 06:12:54;;;;;;;4.10;2.43;;;18.90;51.10;;;19.53;43.93;97525.72;5050646;28;20045;-39
2022/07/28 06:15:25;;;;;;;5.50;2.38;;;19.00;51.10;;;19.61;43.88;97525.41;5067500;28;20264;-39
2022/07/28 06:17:54;;;;;;;4.90;2.78;;;19.00;51.10;;;19.64;43.89;97522.28;5068479;28;20047;-40
2022/07/28 06:20:28;;;;;;;4.13;2.28;;;19.10;51.00;;;19.67;43.88;97521.00;5066338;28;20056;-39
2022/07/28 06:22:56;;;;;;;3.08;2.22;;;19.10;51.10;;;19.72;43.98;97523.91;5066402;28;20049;-39
2022/07/28 06:25:28;;;;;;;2.97;1.85;;;19.20;51.10;;;19.77;44.13;97521.34;5067970;28;20045;-39
2022/07/28 06:27:59;;;;;;;3.92;2.03;;;19.20;51.20;;;19.81;44.09;97537.94;5068336;28;20056;-39
2022/07/28 06:30:28;;;;;;;9.00;2.75;;;19.30;51.40;;;19.87;44.01;97528.94;5067360;28;20062;-39
2022/07/28 06:32:57;;;;;;;4.72;3.03;;;19.30;51.20;;;19.92;43.93;97526.41;5068695;28;20063;-40
2022/07/28 06:35:25;;;;;;;3.28;2.67;;;19.30;51.00;;;19.98;44.05;97536.31;5051383;28;20067;-40
2022/07/28 06:37:53;;;;;;;7.15;2.30;;;19.40;51.20;;;20.04;44.15;97532.69;5067634;28;20040;-39
2022/07/28 06:40:21;;;;;;;11.30;3.42;;;19.40;51.20;;;20.12;44.12;97531.59;5067623;28;20354;-40
2022/07/28 06:42:50;;;;;;;7.15;2.65;;;19.50;51.30;;;20.17;44.10;97523.63;5067533;28;20061;-39
2022/07/28 06:45:19;;;;;;;4.15;3.05;;;19.60;51.40;;;20.22;44.01;97528.34;5050038;28;20055;-39
2022/07/28 06:47:49;;;;;;;5.50;2.85;;;19.70;51.30;;;20.25;44.24;97528.72;5050868;28;20048;-40
2022/07/28 06:50:17;;;;;;;5.47;2.97;;;19.80;51.30;;;20.31;44.14;97529.69;5068483;28;20048;-40
2022/07/28 06:52:57;;;;;;;5.63;2.67;;;19.80;51.20;;;20.37;44.17;97525.28;5066452;28;20380;-39
2022/07/28 06:55:27;;;;;;;5.35;2.60;;;19.90;51.30;;;20.41;43.99;97537.28;5033031;28;20261;-39
2022/07/28 06:58:03;;;;;;;3.00;2.60;;;19.90;51.20;;;20.44;44.11;97520.63;5050093;28;20061;-40
2022/07/28 07:00:31;;;;;;;7.18;3.08;;;19.90;51.30;;;20.51;44.22;97526.78;5047204;28;20056;-40
2022/07/28 07:02:59;;;;;;;7.07;3.22;;;19.90;51.60;;;20.56;44.19;97524.19;5066504;28;20061;-40
2022/07/28 07:05:30;;;;;;;6.25;4.25;;;20.00;51.50;;;20.61;44.19;97518.97;5082080;28;20066;-39
2022/07/28 07:07:59;;;;;;;10.18;3.47;;;20.10;51.50;;;20.65;44.28;97525.56;5088130;28;20051;-39
2022/07/28 07:10:27;;;;;;;7.10;4.05;;;20.10;51.60;;;20.72;44.36;97522.75;5087592;28;20051;-39
2022/07/28 07:12:55;;;;;;;6.28;3.38;;;20.20;51.30;;;20.79;44.35;97515.38;5085579;28;20364;-39
2022/07/28 07:15:23;;;;;;;5.93;3.20;;;20.30;51.60;;;20.84;44.04;97520.94;5087548;28;20058;-39
2022/07/28 07:17:53;;;;;;;5.68;3.03;;;20.30;51.40;;;20.89;44.13;97519.41;5086915;28;20367;-38
2022/07/28 07:20:20;;;;;;;5.78;3.17;;;20.40;51.30;;;20.94;44.16;97520.38;5085824;28;20036;-39
2022/07/28 07:22:49;;;;;;;6.25;3.92;;;20.40;51.40;;;20.97;44.42;97519.91;5086515;28;20237;-39
2022/07/28 07:25:18;;;;;;;4.82;3.30;;;20.50;51.40;;;21.03;44.08;97519.00;5087369;28;20301;-39
2022/07/28 07:27:47;;;;;;;9.52;4.00;;;20.60;51.50;;;21.09;44.09;97519.13;5068814;28;20062;-39
2022/07/28 07:30:15;;;;;;;6.38;3.60;;;20.60;51.30;;;21.12;44.14;97508.66;5085970;28;20044;-39
2022/07/28 07:32:43;;;;;;;6.60;4.40;;;20.70;51.30;;;21.15;44.15;97516.31;5086772;28;20045;-39
2022/07/28 07:35:12;;;;;;;4.40;3.72;;;20.70;51.60;;;21.18;44.35;97513.13;5085107;28;20059;-39
2022/07/28 07:37:40;;;;;;;7.85;4.13;;;20.80;51.60;;;21.23;44.17;97515.16;5069119;28;20237;-39
2022/07/28 07:40:08;;;;;;;4.00;3.58;;;20.80;51.50;;;21.29;44.26;97519.63;5086526;28;20074;-38
2022/07/28 07:42:36;;;;;;;8.40;4.00;;;20.80;51.50;;;21.35;44.36;97516.00;5086904;28;20321;-39
2022/07/28 07:45:05;;;;;;;5.65;3.80;;;20.90;51.60;;;21.41;44.24;97509.63;5086680;28;20052;-39
2022/07/28 07:47:33;;;;;;;7.40;4.15;;;21.00;51.40;;;21.46;44.46;97509.00;5087453;28;20054;-39
2022/07/28 07:50:00;;;;;;;6.68;4.13;;;21.00;51.40;;;21.49;44.50;97513.09;5085972;28;20078;-39
2022/07/28 07:52:31;;;;;;;7.75;4.18;;;21.00;51.50;;;21.55;44.38;97512.16;5086928;28;20054;-39
2022/07/28 07:54:59;;;;;;;8.65;4.45;;;21.10;51.80;;;21.61;44.28;97511.22;5085660;28;20553;-39
2022/07/28 07:57:27;;;;;;;6.63;4.70;;;21.20;51.60;;;21.66;44.55;97507.81;5086644;28;20050;-39
2022/07/28 07:59:55;;;;;;;7.75;4.82;;;21.20;51.50;;;21.69;44.28;97507.31;5078388;28;20352;-39
2022/07/28 08:02:22;;;;;;;6.20;4.40;;;21.20;51.70;;;21.75;44.63;97506.38;5076338;28;20262;-39
2022/07/28 08:04:50;;;;;;;9.25;5.55;;;21.30;51.80;;;21.80;44.33;97512.75;5074938;28;20066;-39
2022/07/28 08:07:19;;;;;;;10.68;4.10;;;21.40;51.60;;;21.85;44.53;97516.63;5076232;28;20051;-40
2022/07/28 08:09:48;;;;;;;6.65;4.82;;;21.30;51.60;;;21.90;44.74;97517.56;5074320;28;20046;-39
2022/07/28 08:12:16;;;;;;;8.10;4.57;;;21.40;51.70;;;21.94;44.55;97505.19;5076059;28;20350;-39
2022/07/28 08:14:55;;;;;;;9.57;4.53;;;21.50;51.80;;;21.99;44.74;97509.91;5073998;28;20048;-39
2022/07/28 08:17:23;;;;;;;8.63;4.53;;;21.60;51.50;;;22.05;44.70;97511.66;5073994;28;20058;-39
2022/07/28 08:19:55;;;;;;;7.32;5.05;;;21.60;51.70;;;22.08;44.58;97508.50;5086564;28;20040;-39
2022/07/28 08:22:24;;;;;;;12.13;5.22;;;21.70;52.40;;;22.13;44.52;97514.00;5068310;28;20070;-39
2022/07/28 08:24:52;;;;;;;6.05;3.92;;;21.70;51.60;;;22.18;44.33;97505.97;5052505;28;20055;-39
2022/07/28 08:27:20;;;;;;;7.60;4.90;;;21.80;51.50;;;22.25;44.16;97507.75;5086297;28;20044;-39
2022/07/28 08:29:48;;;;;;;6.40;5.63;;;21.80;51.30;;;22.28;44.58;97507.28;5068096;28;20484;-39
2022/07/28 08:32:16;;;;;;;5.65;4.63;;;21.90;51.60;;;22.34;44.09;97509.03;5086097;28;20258;-40
2022/07/28 08:34:44;;;;;;;7.45;4.50;;;21.90;51.50;;;22.41;44.38;97501.56;5086842;28;20046;-39
2022/07/28 08:37:11;;;;;;;8.00;4.43;;;22.00;51.40;;;22.45;44.63;97505.47;5085489;28;20052;-39
2022/07/28 08:39:39;;;;;;;5.75;5.25;;;22.00;51.60;;;22.50;44.64;97496.59;5086207;28;20062;-40
2022/07/28 08:42:42;;;;;;;6.30;4.88;;;22.10;51.60;;;22.55;44.37;97508.38;5085534;28;20044;-40
2022/07/28 08:45:11;;;;;;;9.50;4.88;;;22.20;51.60;;;22.62;44.06;97508.22;5079150;28;20044;-40
2022/07/28 08:47:41;;;;;;;8.10;4.45;;;22.20;51.50;;;22.66;43.99;97506.66;5067576;28;20060;-40
2022/07/28 08:50:30;;;;;;;5.32;4.68;;;22.20;51.30;;;22.72;44.20;97499.44;5069676;28;20061;-39
2022/07/28 08:52:59;;;;;;;5.53;4.85;;;22.30;51.50;;;22.76;44.27;97496.03;5052035;28;20335;-40
2022/07/28 08:55:28;;;;;;;10.02;6.03;;;22.30;51.40;;;22.80;44.59;97491.75;5069799;28;20245;-39
2022/07/28 08:57:59;;;;;;;6.13;5.53;;;22.40;51.70;;;22.89;44.49;97494.88;5070267;28;20051;-40
2022/07/28 09:00:27;;;;;;;6.43;5.18;;;22.40;51.50;;;22.94;44.41;97500.41;5069687;28;20471;-40
2022/07/28 09:02:55;;;;;;;6.30;4.38;;;22.60;51.40;;;23.02;44.17;97495.66;5052423;28;20045;-40
2022/07/28 09:05:23;;;;;;;6.40;5.63;;;22.60;51.60;;;23.10;44.50;97484.44;5069809;28;20060;-39
2022/07/28 09:07:53;;;;;;;6.50;5.65;;;22.70;51.60;;;23.16;43.93;97500.53;5069318;28;20060;-40
2022/07/28 09:10:22;;;;;;;5.90;5.03;;;22.80;51.20;;;23.21;44.03;97491.69;5069149;28;20049;-39
2022/07/28 09:12:50;;;;;;;6.97;5.25;;;22.80;51.10;;;23.27;44.26;97489.88;5070493;28;20237;-39
2022/07/28 09:15:19;;;;;;;6.32;5.65;;;22.90;51.40;;;23.32;44.09;97490.78;5069236;28;20051;-39
2022/07/28 09:17:47;;;;;;;7.65;5.53;;;22.90;51.40;;;23.39;44.14;97488.69;5069547;28;20068;-39
2022/07/28 09:20:15;;;;;;;8.40;5.53;;;23.00;51.30;;;23.47;44.28;97492.91;5068155;28;20371;-39
2022/07/28 09:23:05;;;;;;;6.00;5.38;;;23.10;51.30;;;23.55;43.86;97484.34;5051598;28;20360;-39
2022/07/28 09:26:08;;;;;;;9.50;5.30;;;23.20;51.00;;;23.65;43.83;97483.69;5068416;28;20052;-39
2022/07/28 09:28:57;;;;;;;7.30;5.20;;;23.30;51.00;;;23.71;43.46;97477.25;5069607;28;20045;-40
2022/07/28 09:31:27;;;;;;;7.13;5.32;;;23.30;50.60;;;23.78;43.75;97485.25;5067484;28;20064;-39
2022/07/28 09:34:01;;;;;;;9.88;5.82;;;23.40;50.80;;;23.84;43.61;97486.13;5068690;28;20057;-39
2022/07/28 09:36:39;;;;;;;6.90;5.20;;;23.40;50.60;;;23.89;43.46;97483.50;5067971;28;20052;-39
2022/07/28 09:39:07;;;;;;;9.15;5.30;;;23.50;50.40;;;23.91;43.40;97487.59;5085154;28;20053;-39
2022/07/28 09:41:54;;;;;;;6.07;5.20;;;23.50;50.50;;;23.94;43.16;97480.84;5068813;28;20046;-39
2022/07/28 09:44:27;;;;;;;8.73;5.53;;;23.60;50.20;;;23.99;43.35;97478.19;5052455;28;20040;-39
2022/07/28 09:46:55;;;;;;;6.93;5.28;;;23.60;50.30;;;24.05;43.66;97476.38;5050826;28;20242;-39
2022/07/28 09:49:42;;;;;;;11.40;5.50;;;23.70;50.40;;;24.11;43.07;97476.16;5068403;28;20052;-38
2022/07/28 09:52:11;;;;;;;9.13;4.78;;;23.70;49.90;;;24.19;43.12;97469.47;5067496;28;20064;-38
2022/07/28 09:54:59;;;;;;;6.47;5.30;;;23.80;50.00;;;24.25;43.03;97467.63;5069027;28;20055;-39
2022/07/28 09:57:28;;;;;;;8.00;6.05;;;23.90;49.90;;;24.31;43.10;97461.16;5067407;28;20052;-39
2022/07/28 10:00:05;;;;;;;6.00;5.40;;;24.00;50.00;;;24.40;42.96;97458.84;5066671;28;20056;-38
2022/07/28 10:02:48;;;;;;;8.63;5.40;;;24.00;49.80;;;24.51;43.02;97460.63;5068326;28;20048;-39
2022/07/28 10:05:18;;;;;;;6.28;5.38;;;24.20;50.00;;;24.60;42.67;97461.78;5053008;28;20207;-39
2022/07/28 10:07:49;;;;;;;7.25;5.22;;;24.30;49.50;;;24.70;42.46;97455.66;5052315;28;20066;-39
2022/07/28 10:10:20;;;;;;;6.97;6.30;;;24.40;49.10;;;24.76;42.41;97441.84;5066865;28;20062;-39
2022/07/28 10:12:48;;;;;;;8.07;4.78;;;24.40;49.40;;;24.83;42.29;97455.22;5067206;28;20059;-39
2022/07/28 10:18:17;;;;;;;9.60;6.35;;;24.60;48.30;;;25.01;41.95;97440.44;5055411;28;20373;-39
2022/07/28 10:20:45;;;;;;;6.65;4.85;;;24.70;48.40;;;25.08;41.78;97442.94;5068083;28;20777;-39
2022/07/28 10:23:15;;;;;;;5.95;5.25;;;24.80;48.30;;;25.18;41.49;97437.56;5066362;28;20049;-39
2022/07/28 10:25:44;;;;;;;6.20;5.25;;;24.80;47.90;;;25.27;41.69;97440.66;5067425;28;20362;-39
2022/07/28 10:28:18;;;;;;;7.22;4.90;;;25.00;47.90;;;25.37;41.37;97431.75;5068813;28;20123;-39
2022/07/28 10:30:48;;;;;;;5.57;5.00;;;25.10;47.70;;;25.49;41.02;97429.63;5050525;28;20060;-39
2022/07/28 10:33:18;;;;;;;6.53;5.15;;;25.20;47.10;;;25.58;41.03;97432.69;5067904;28;20053;-39
2022/07/28 10:35:48;;;;;;;6.43;5.13;;;25.30;47.20;;;25.64;41.17;97421.56;5069075;28;20241;-39
2022/07/28 10:38:29;;;;;;;5.30;4.70;;;25.40;47.00;;;25.72;40.74;97425.69;5050245;28;20045;-39
2022/07/28 10:41:00;;;;;;;5.95;4.93;;;25.40;46.90;;;25.76;40.80;97421.34;5051789;28;20049;-39
2022/07/28 10:43:30;;;;;;;6.03;5.53;;;25.50;46.70;;;25.79;40.64;97420.00;5051405;28;20065;-39